Terminal Aerodrome Forecast
Issued by NWS

Home | Current Version | Previous Version | Text Only | Print | Product List | Glossary On
Versions: 1 2 3 4 5 6 7 8 9 10 11 12 13
000
FTUS45 KVEF 311120
TAFBIH
TAF
KBIH 311120Z 3112/0112 VRB06KT P6SM OVC150
     FM311900 17012G20KT P6SM VCTS SCT100CB BKN200
      TEMPO 3121/0101 VRB20G35KT P6SM FEW070CB BKN110
     FM010300 15011KT P6SM VCSH SCT100 BKN150
     FM010500 27005KT P6SM FEW100 BKN150=

USA.gov is the U.S. government's official web portal to all federal, state and local government web resources and services.